logo dgac
Viernes 18 de Junio del 2021
Buscar por aerodromo o helipuerto
Ingrese nombre de aeródromo, localidad o designador OACI:

Aeródromo: El Loa (PUB) (SCCF)

Ubicación: Calama, II Región, Chile (22º 30' 00'' S, 68º 54' 11'' W) Ver ubicación en el mapa

Pistas

Orientación Dimensión Pendiente Superficie Resistencia APCH THR RWY PAPI
10/28 3040 x 45 ASPH PCN 49 F/A/W/T
Horas de operación H24
Elevación 2326 m / 7631 ft
Otra Información Adm : D.G.A.C.
Uso : PUB
Ubicado : 6 km SE Calama
TEL : (56)-55 234 2646
email : aro.calama@dgac.gob.cl

Pendiente: RWY 28 2%
Otra información ver AIP-Chile Volumen I AD 3.9-3.1-C

CCCM/FCCV Descargar
andera de Chile
Mapa de El Loa (PUB) (SCCF)

Último METAR

METAR SCCF 182100Z 29023G33KT CAVOK 16/M03 Q1025

Último TAF

TAF SCCF 181630Z 1818/1918 27025KT 9999 FEW077 TX17/1818Z TNM02/1909Z TEMPO 1818/1821 27030G40KT BECMG 1900/1901 26010KT CAVOK BECMG 1902/1903 11010KT BECMG 1907/1909 11020KT BECMG 1915/1916 26010KT BECMG 1917/1918 27016KT

Últimas fotos cámaras

Imagen aerodromo El Loa (PUB) (SCCF) Este tomada el 18-06-2021 09:44:03 Imagen aerodromo El Loa (PUB) (SCCF) Oeste tomada el 18-06-2021 09:43:43

Último NOTAM

C2795/21 NOTAMN Q)SCFZ/QMKLT/IV/M/A/000/999/2230S06854W005 A)SCCF B)2106162352 C)2106302359 E)PRKG 1 SOLO CON SGL DE EJE